Map

Track Data

SID SEASON NUMBER BASIN SUBBASIN NAME ISO_TIME NATURE LAT LON WMO_WIND WMO_PRES WMO_AGENCY TRACK_TYPE DIST2LAND LANDFALL IFLAG USA_AGENCY USA_ATCF_ID USA_LAT USA_LON USA_RECORD USA_STATUS USA_WIND USA_PRES USA_SSHS USA_R34_NE USA_R34_SE USA_R34_SW USA_R34_NW USA_R50_NE USA_R50_SE USA_R50_SW USA_R50_NW USA_R64_NE USA_R64_SE USA_R64_SW USA_R64_NW USA_POCI USA_ROCI USA_RMW USA_EYE TOKYO_LAT TOKYO_LON TOKYO_GRADE TOKYO_WIND TOKYO_PRES TOKYO_R50_DIR TOKYO_R50_LONG TOKYO_R50_SHORT TOKYO_R30_DIR TOKYO_R30_LONG TOKYO_R30_SHORT TOKYO_LAND CMA_LAT CMA_LON CMA_CAT CMA_WIND CMA_PRES HKO_LAT HKO_LON HKO_CAT HKO_WIND HKO_PRES NEWDELHI_LAT NEWDELHI_LON NEWDELHI_GRADE NEWDELHI_WIND NEWDELHI_PRES NEWDELHI_CI NEWDELHI_DP NEWDELHI_POCI REUNION_LAT REUNION_LON REUNION_TYPE REUNION_WIND REUNION_PRES REUNION_TNUM REUNION_CI REUNION_RMW REUNION_R34_NE REUNION_R34_SE REUNION_R34_SW REUNION_R34_NW REUNION_R50_NE REUNION_R50_SE REUNION_R50_SW REUNION_R50_NW REUNION_R64_NE REUNION_R64_SE REUNION_R64_SW REUNION_R64_NW BOM_LAT BOM_LON BOM_TYPE BOM_WIND BOM_PRES BOM_TNUM BOM_CI BOM_RMW BOM_R34_NE BOM_R34_SE BOM_R34_SW BOM_R34_NW BOM_R50_NE BOM_R50_SE BOM_R50_SW BOM_R50_NW BOM_R64_NE BOM_R64_SE BOM_R64_SW BOM_R64_NW BOM_ROCI BOM_POCI BOM_EYE BOM_POS_METHOD BOM_PRES_METHOD NADI_LAT NADI_LON NADI_CAT NADI_WIND NADI_PRES WELLINGTON_LAT WELLINGTON_LON WELLINGTON_WIND WELLINGTON_PRES DS824_LAT DS824_LON DS824_STAGE DS824_WIND DS824_PRES TD9636_LAT TD9636_LON TD9636_STAGE TD9636_WIND TD9636_PRES TD9635_LAT TD9635_LON TD9635_WIND TD9635_PRES TD9635_ROCI NEUMANN_LAT NEUMANN_LON NEUMANN_CLASS NEUMANN_WIND NEUMANN_PRES MLC_LAT MLC_LON MLC_CLASS MLC_WIND MLC_PRES USA_GUST BOM_GUST BOM_GUST_PER REUNION_GUST REUNION_GUST_PER USA_SEAHGT USA_SEARAD_NE USA_SEARAD_SE USA_SEARAD_SW USA_SEARAD_NW STORM_SPEED STORM_DIR
1932061N10143 1932 16 WP MM NOT_NAMED 1932-03-01 10:00:00 NR 10.2000 143.300 main 1425 1425 __________O___ -1 10.2000 143.300 2 5 278
1932061N10143 1932 16 WP MM NOT_NAMED 1932-03-01 12:00:00 NR 10.2215 143.146 main 1429 1425 __________P___ -1 10.2215 143.146 2 5 278
1932061N10143 1932 16 WP MM NOT_NAMED 1932-03-01 15:00:00 NR 10.2581 142.904 main 1431 1419 __________P___ -1 10.2581 142.904 2 5 280
1932061N10143 1932 16 WP MM NOT_NAMED 1932-03-01 18:00:00 NR 10.3062 142.633 main 1419 1412 __________P___ -1 10.3062 142.633 2 6 281
1932061N10143 1932 16 WP MM NOT_NAMED 1932-03-01 21:00:00 NR 10.3726 142.318 main 1419 1415 __________P___ -1 10.3726 142.318 2 7 282
1932061N10143 1932 16 WP MM NOT_NAMED 1932-03-01 22:00:00 NR 10.4000 142.200 main 1415 1408 __________O___ -1 10.4000 142.200 2 8 284
1932061N10143 1932 16 WP MM NOT_NAMED 1932-03-02 00:00:00 NR 10.4635 141.942 main 1416 1407 __________P___ -1 10.4635 141.942 2 8 285
1932061N10143 1932 16 WP MM NOT_NAMED 1932-03-02 03:00:00 NR 10.5777 141.505 main 1415 1405 __________P___ -1 10.5777 141.505 2 9 285
1932061N10143 1932 16 WP MM NOT_NAMED 1932-03-02 06:00:00 NR 10.7089 141.016 main 1406 1395 __________P___ -1 10.7089 141.016 2 10 285
1932061N10143 1932 16 WP MM NOT_NAMED 1932-03-02 09:00:00 NR 10.8512 140.485 main 1406 1398 __________P___ -1 10.8512 140.485 2 11 285
1932061N10143 1932 16 WP MM NOT_NAMED 1932-03-02 10:00:00 NR 10.9000 140.300 main 1398 1390 __________O___ -1 10.9000 140.300 2 11 285
1932061N10143 1932 16 WP MM NOT_NAMED 1932-03-02 12:00:00 NR 10.9970 139.921 main 1394 1384 __________P___ -1 10.9970 139.921 2 12 284
1932061N10143 1932 16 WP MM NOT_NAMED 1932-03-02 15:00:00 NR 11.1488 139.320 main 1384 1382 __________P___ -1 11.1488 139.320 2 12 284
1932061N10143 1932 16 WP MM NOT_NAMED 1932-03-02 18:00:00 NR 11.3026 138.704 main 1387 1325 __________P___ -1 11.3026 138.704 2 12 284
1932061N10143 1932 16 WP MM NOT_NAMED 1932-03-02 21:00:00 NR 11.4521 138.096 main 1327 1305 __________P___ -1 11.4521 138.096 2 12 284
1932061N10143 1932 16 WP MM NOT_NAMED 1932-03-02 22:00:00 NR 11.5000 137.900 main 1305 1265 __________O___ -1 11.5000 137.900 2 11 284
1932061N10143 1932 16 WP MM NOT_NAMED 1932-03-03 00:00:00 NR 11.5913 137.535 main 1265 1214 __________P___ -1 11.5913 137.535 2 11 284
1932061N10143 1932 16 WP MM NOT_NAMED 1932-03-03 03:00:00 NR 11.7222 137.007 main 1214 1163 __________P___ -1 11.7222 137.007 2 11 284
1932061N10143 1932 16 WP MM NOT_NAMED 1932-03-03 06:00:00 NR 11.8460 136.491 main 1163 1116 __________P___ -1 11.8460 136.491 2 10 283
1932061N10143 1932 16 WP MM NOT_NAMED 1932-03-03 09:00:00 NR 11.9627 135.975 main 1116 1095 __________P___ -1 11.9627 135.975 2 10 283
1932061N10143 1932 16 WP MM NOT_NAMED 1932-03-03 10:00:00 NR 12.0000 135.800 main 1095 1053 __________O___ -1 12.0000 135.800 2 11 282
1932061N10143 1932 16 WP MM NOT_NAMED 1932-03-03 12:00:00 NR 12.0776 135.423 main 1053 1000 __________P___ -1 12.0776 135.423 2 11 281
1932061N10143 1932 16 WP MM NOT_NAMED 1932-03-03 15:00:00 NR 12.1880 134.852 main 1000 937 __________P___ -1 12.1880 134.852 2 11 281
1932061N10143 1932 16 WP MM NOT_NAMED 1932-03-03 18:00:00 NR 12.2880 134.291 main 937 885 __________P___ -1 12.2880 134.291 2 11 280
1932061N10143 1932 16 WP MM NOT_NAMED 1932-03-03 21:00:00 NR 12.3746 133.764 main 885 864 __________P___ -1 12.3746 133.764 2 10 279
1932061N10143 1932 16 WP MM NOT_NAMED 1932-03-03 22:00:00 NR 12.4000 133.600 main 864 832 __________O___ -1 12.4000 133.600 2 9 279
1932061N10143 1932 16 WP MM NOT_NAMED 1932-03-04 00:00:00 NR 12.4470 133.299 main 832 791 __________P___ -1 12.4470 133.299 2 8 279
1932061N10143 1932 16 WP MM NOT_NAMED 1932-03-04 03:00:00 NR 12.5052 132.885 main 791 748 __________P___ -1 12.5052 132.885 2 8 278
1932061N10143 1932 16 WP MM NOT_NAMED 1932-03-04 06:00:00 NR 12.5515 132.501 main 751 709 __________P___ -1 12.5515 132.501 2 7 276
1932061N10143 1932 16 WP MM NOT_NAMED 1932-03-04 09:00:00 NR 12.5890 132.126 main 709 698 __________P___ -1 12.5890 132.126 2 7 276
1932061N10143 1932 16 WP MM NOT_NAMED 1932-03-04 10:00:00 NR 12.6000 132.000 main 698 667 __________O___ -1 12.6000 132.000 2 8 275
1932061N10143 1932 16 WP MM NOT_NAMED 1932-03-04 12:00:00 NR 12.6248 131.739 main 667 628 __________P___ -1 12.6248 131.739 2 8 275
1932061N10143 1932 16 WP MM NOT_NAMED 1932-03-04 15:00:00 NR 12.6559 131.347 main 628 587 __________P___ -1 12.6559 131.347 2 8 274
1932061N10143 1932 16 WP MM NOT_NAMED 1932-03-04 18:00:00 NR 12.6797 130.949 main 587 546 __________P___ -1 12.6797 130.949 2 8 273
1932061N10143 1932 16 WP MM NOT_NAMED 1932-03-04 21:00:00 NR 12.6961 130.540 main 546 535 __________P___ -1 12.6961 130.540 2 8 272
1932061N10143 1932 16 WP MM NOT_NAMED 1932-03-04 22:00:00 NR 12.7000 130.400 main 535 502 __________O___ -1 12.7000 130.400 2 8 271
1932061N10143 1932 16 WP MM NOT_NAMED 1932-03-05 00:00:00 NR 12.7057 130.109 main 502 459 __________P___ -1 12.7057 130.109 2 9 271
1932061N10143 1932 16 WP MM NOT_NAMED 1932-03-05 03:00:00 NR 12.7079 129.659 main 459 405 __________P___ -1 12.7079 129.659 2 9 270
1932061N10143 1932 16 WP MM NOT_NAMED 1932-03-05 06:00:00 NR 12.7053 129.203 main 405 352 __________P___ -1 12.7053 129.203 2 9 270
1932061N10143 1932 16 WP MM NOT_NAMED 1932-03-05 09:00:00 NR 12.7012 128.749 main 352 341 __________P___ -1 12.7012 128.749 2 9 269
1932061N10143 1932 16 WP MM NOT_NAMED 1932-03-05 10:00:00 NR 12.7000 128.600 main 341 309 __________O___ -1 12.7000 128.600 2 8 270
1932061N10143 1932 16 WP MM NOT_NAMED 1932-03-05 12:00:00 NR 12.7023 128.319 main 309 266 __________P___ -1 12.7023 128.319 2 8 271
1932061N10143 1932 16 WP MM NOT_NAMED 1932-03-05 15:00:00 NR 12.7061 127.904 main 266 224 __________P___ -1 12.7061 127.904 2 8 270
1932061N10143 1932 16 WP MM NOT_NAMED 1932-03-05 18:00:00 NR 12.7074 127.485 main 224 182 __________P___ -1 12.7074 127.485 2 8 270
1932061N10143 1932 16 WP MM NOT_NAMED 1932-03-05 21:00:00 NR 12.7032 127.051 main 182 162 __________P___ -1 12.7032 127.051 2 9 269
1932061N10143 1932 16 WP MM NOT_NAMED 1932-03-05 22:00:00 NR 12.7000 126.900 main 162 131 __________O___ -1 12.7000 126.900 2 9 268
1932061N10143 1932 16 WP MM NOT_NAMED 1932-03-06 00:00:00 NR 12.6864 126.581 main 131 85 __________P___ -1 12.6864 126.581 2 10 267
1932061N10143 1932 16 WP MM NOT_NAMED 1932-03-06 03:00:00 NR 12.6596 126.084 main 85 39 __________P___ -1 12.6596 126.084 2 10 267
1932061N10143 1932 16 WP MM NOT_NAMED 1932-03-06 06:00:00 NR 12.6308 125.575 main 39 11 __________P___ -1 12.6308 125.575 2 10 267
1932061N10143 1932 16 WP MM NOT_NAMED 1932-03-06 09:00:00 NR 12.6062 125.067 main 11 11 __________P___ -1 12.6062 125.067 2 10 267
1932061N10143 1932 16 WP MM NOT_NAMED 1932-03-06 10:00:00 NR 12.6000 124.900 main 11 11 __________O___ -1 12.6000 124.900 2 9 269
1932061N10143 1932 16 WP MM NOT_NAMED 1932-03-06 12:00:00 NR 12.5991 124.591 main 11 0 __________P___ -1 12.5991 124.591 2 9 270
1932061N10143 1932 16 WP MM NOT_NAMED 1932-03-06 15:00:00 NR 12.6045 124.134 main 0 0 __________P___ -1 12.6045 124.134 2 9 271
1932061N10143 1932 16 WP MM NOT_NAMED 1932-03-06 18:00:00 NR 12.6096 123.668 main 15 11 __________P___ -1 12.6096 123.668 2 9 270
1932061N10143 1932 16 WP MM NOT_NAMED 1932-03-06 21:00:00 NR 12.6052 123.174 main 15 24 __________P___ -1 12.6052 123.174 2 10 269
1932061N10143 1932 16 WP MM NOT_NAMED 1932-03-06 22:00:00 NR 12.6000 123.000 main 34 34 __________O___ -1 12.6000 123.000 2 11 267
1932061N10143 1932 16 WP MM NOT_NAMED 1932-03-07 00:00:00 NR 12.5782 122.618 main 67 44 __________P___ -1 12.5782 122.618 2 12 266
1932061N10143 1932 16 WP MM NOT_NAMED 1932-03-07 03:00:00 NR 12.5329 122.013 main 44 0 __________P___ -1 12.5329 122.013 2 12 265
1932061N10143 1932 16 WP MM NOT_NAMED 1932-03-07 06:00:00 NR 12.4778 121.395 main 0 0 __________P___ -1 12.4778 121.395 2 12 265
1932061N10143 1932 16 WP MM NOT_NAMED 1932-03-07 09:00:00 NR 12.4192 120.793 main 21 21 __________P___ -1 12.4192 120.793 2 12 264
1932061N10143 1932 16 WP MM NOT_NAMED 1932-03-07 10:00:00 NR 12.4000 120.600 main 39 39 __________O___ -1 12.4000 120.600 2 11 264
1932061N10143 1932 16 WP MM NOT_NAMED 1932-03-07 12:00:00 NR 12.3632 120.231 main 73 73 __________P___ -1 12.3632 120.231 2 10 264
1932061N10143 1932 16 WP MM NOT_NAMED 1932-03-07 15:00:00 NR 12.3116 119.713 main 112 111 __________P___ -1 12.3116 119.713 2 10 264
1932061N10143 1932 16 WP MM NOT_NAMED 1932-03-07 18:00:00 NR 12.2630 119.225 main 116 109 __________P___ -1 12.2630 119.225 2 9 264
1932061N10143 1932 16 WP MM NOT_NAMED 1932-03-07 21:00:00 NR 12.2157 118.755 main 126 133 __________P___ -1 12.2157 118.755 2 9 264
1932061N10143 1932 16 WP MM NOT_NAMED 1932-03-07 22:00:00 NR 12.2000 118.600 main 140 __________O___ -1 12.2000 118.600 7 9 264

Digital Typhoon Data and Search

About IBTrACS Database

This database is a web-friendly format of International Best Track Archive for Climate Stewardship (IBTrACS), a global best track data archive curated by NOAA dating back to 1842.

Updated: 2021-10-25